Time;durP1;ratioP1;P1;durP2;ratioP2;P2;SDS_P1;SDS_P2;PMS_P1;PMS_P2;Temp;Humidity;BMP_temperature;BMP_pressure;BME280_temperature;BME280_humidity;BME280_pressure;Samples;Min_cycle;Max_cycle;Signal;HPM_P1;HPM_P2
2021/07/21 00:01:24;;;;;;;6.03;4.10;;;;;;;;;;5091965;28;20043;-79
2021/07/21 00:03:50;;;;;;;6.05;3.97;;;;;;;;;;5076258;28;20413;-79
2021/07/21 00:06:17;;;;;;;8.20;4.03;;;;;;;;;;5082987;28;20089;-81
2021/07/21 00:08:43;;;;;;;5.40;3.88;;;;;;;;;;5082234;28;20499;-81
2021/07/21 00:13:55;;;;;;;7.18;4.03;;;;;;;;;;5093356;28;20088;-81
2021/07/21 00:16:28;;;;;;;6.78;4.05;;;;;;;;;;5103094;28;20080;-80
2021/07/21 00:18:58;;;;;;;6.10;4.18;;;;;;;;;;5121221;28;20035;-80
2021/07/21 00:21:26;;;;;;;7.30;4.88;;;;;;;;;;5086186;28;20494;-81
2021/07/21 00:23:52;;;;;;;6.28;3.97;;;;;;;;;;5103733;28;20536;-81
2021/07/21 00:26:18;;;;;;;7.00;4.03;;;;;;;;;;5103409;28;20038;-80
2021/07/21 00:28:44;;;;;;;4.57;3.80;;;;;;;;;;5121197;28;20110;-80
2021/07/21 00:31:15;;;;;;;9.15;4.57;;;;;;;;;;5104007;28;20035;-80
2021/07/21 00:33:42;;;;;;;9.02;4.35;;;;;;;;;;5103369;28;20028;-80
2021/07/21 00:36:07;;;;;;;5.85;4.20;;;;;;;;;;5102995;28;20401;-80
2021/07/21 00:38:33;;;;;;;9.60;3.83;;;;;;;;;;5086172;28;20035;-80
2021/07/21 00:40:59;;;;;;;7.57;4.13;;;;;;;;;;5103008;28;20059;-81
2021/07/21 00:43:27;;;;;;;8.80;4.70;;;;;;;;;;5079313;28;20046;-80
2021/07/21 00:45:54;;;;;;;7.15;4.05;;;;;;;;;;5065438;28;20593;-80
2021/07/21 00:48:21;;;;;;;4.97;4.03;;;;;;;;;;5082625;28;20028;-80
2021/07/21 00:50:47;;;;;;;9.15;4.50;;;;;;;;;;5082702;28;20081;-80
2021/07/21 00:53:13;;;;;;;9.77;4.30;;;;;;;;;;5082408;28;20036;-80
2021/07/21 00:55:40;;;;;;;8.02;4.30;;;;;;;;;;5082824;28;20040;-80
2021/07/21 00:58:07;;;;;;;11.05;3.80;;;;;;;;;;5082322;28;20035;-80
2021/07/21 01:00:33;;;;;;;8.82;3.95;;;;;;;;;;5081913;28;20491;-80
2021/07/21 01:02:59;;;;;;;6.35;4.20;;;;;;;;;;5081911;28;20047;-80
2021/07/21 01:05:32;;;;;;;10.45;4.18;;;;;;;;;;5082653;28;20024;-80
2021/07/21 01:08:04;;;;;;;9.35;4.28;;;;;;;;;;5066154;28;20048;-80
2021/07/21 01:10:41;;;;;;;11.68;4.88;;;;;;;;;;5067242;28;20646;-80
2021/07/21 01:13:17;;;;;;;7.78;4.07;;;;;;;;;;5074068;27;20031;-80
2021/07/21 01:15:48;;;;;;;5.10;3.90;;;;;;;;;;5122614;27;20087;-80
2021/07/21 01:18:25;;;;;;;5.75;4.00;;;;;;;;;;5105134;27;20061;-80
2021/07/21 01:20:51;;;;;;;8.77;4.32;;;;;;;;;;5105497;27;20114;-80
2021/07/21 01:23:36;;;;;;;7.88;3.97;;;;;;;;;;5102329;28;20043;-80
2021/07/21 01:26:12;;;;;;;8.18;3.97;;;;;;;;;;5103075;28;20081;-80
2021/07/21 01:28:47;;;;;;;6.65;4.10;;;;;;;;;;5102797;28;20096;-80
2021/07/21 01:31:20;;;;;;;5.88;3.72;;;;;;;;;;5102304;28;20039;-80
2021/07/21 01:33:47;;;;;;;6.57;4.30;;;;;;;;;;5119425;28;20059;-80
2021/07/21 01:36:18;;;;;;;13.30;4.65;;;;;;;;;;5118895;28;20101;-80
2021/07/21 01:38:50;;;;;;;11.32;4.18;;;;;;;;;;5102293;28;20038;-80
2021/07/21 01:41:24;;;;;;;6.28;4.20;;;;;;;;;;5102747;28;20028;-80
2021/07/21 01:43:54;;;;;;;9.02;4.03;;;;;;;;;;5092038;28;20032;-80
2021/07/21 01:46:23;;;;;;;6.10;4.00;;;;;;;;;;5098691;28;20029;-80
2021/07/21 01:48:51;;;;;;;9.20;4.93;;;;;;;;;;5081711;28;20096;-80
2021/07/21 01:51:22;;;;;;;6.55;4.47;;;;;;;;;;5097780;28;20130;-80
2021/07/21 01:53:48;;;;;;;7.10;4.22;;;;;;;;;;5081830;28;20081;-81
2021/07/21 01:56:18;;;;;;;5.25;3.80;;;;;;;;;;5096960;28;20032;-80
2021/07/21 01:58:51;;;;;;;7.38;4.85;;;;;;;;;;5098917;28;20036;-80
2021/07/21 02:01:47;;;;;;;7.15;4.10;;;;;;;;;;5089485;28;20040;-80
2021/07/21 02:04:24;;;;;;;7.18;4.40;;;;;;;;;;5097824;28;20054;-80
2021/07/21 02:06:49;;;;;;;8.73;4.60;;;;;;;;;;5097942;28;20081;-81
2021/07/21 02:09:15;;;;;;;6.65;3.88;;;;;;;;;;5114884;28;20473;-81
2021/07/21 02:11:47;;;;;;;5.15;4.00;;;;;;;;;;5097933;28;20039;-80
2021/07/21 02:14:17;;;;;;;10.07;4.40;;;;;;;;;;5101688;28;20055;-81
2021/07/21 02:16:50;;;;;;;5.82;4.13;;;;;;;;;;5062506;28;20104;-80
2021/07/21 02:19:29;;;;;;;5.72;4.30;;;;;;;;;;5064610;28;20032;-84
2021/07/21 02:22:18;;;;;;;6.55;3.97;;;;;;;;;;5082042;28;20070;-84
2021/07/21 02:24:53;;;;;;;7.03;3.53;;;;;;;;;;5047718;28;20518;-83
2021/07/21 02:27:29;;;;;;;5.30;3.65;;;;;;;;;;5059768;28;20115;-83
2021/07/21 02:29:55;;;;;;;9.85;5.65;;;;;;;;;;5059122;28;20432;-84
2021/07/21 02:32:31;;;;;;;5.57;3.90;;;;;;;;;;5058069;28;20124;-83
2021/07/21 02:34:59;;;;;;;6.47;3.83;;;;;;;;;;5058528;28;20400;-83
2021/07/21 02:37:27;;;;;;;7.05;3.90;;;;;;;;;;5058159;28;20064;-83
2021/07/21 02:39:53;;;;;;;7.30;3.95;;;;;;;;;;5058076;28;20043;-83
2021/07/21 02:42:19;;;;;;;7.40;4.40;;;;;;;;;;5057827;28;20033;-83
2021/07/21 02:44:48;;;;;;;6.60;4.07;;;;;;;;;;5057423;28;20096;-83
2021/07/21 02:47:15;;;;;;;4.78;3.75;;;;;;;;;;5055970;28;20107;-83
2021/07/21 02:49:45;;;;;;;6.38;4.35;;;;;;;;;;5057047;28;20055;-83
2021/07/21 02:52:16;;;;;;;8.48;4.03;;;;;;;;;;5040860;28;20033;-83
2021/07/21 02:55:13;;;;;;;9.50;4.25;;;;;;;;;;5056805;28;20032;-85
2021/07/21 02:57:50;;;;;;;10.23;4.30;;;;;;;;;;5040662;28;20029;-84
2021/07/21 03:00:26;;;;;;;12.02;4.05;;;;;;;;;;5039590;28;20557;-85
2021/07/21 03:03:08;;;;;;;9.65;4.45;;;;;;;;;;5051763;28;20037;-85
2021/07/21 03:05:39;;;;;;;6.95;4.18;;;;;;;;;;5053318;28;20037;-87
2021/07/21 03:08:11;;;;;;;9.40;4.72;;;;;;;;;;5036276;28;20496;-87
2021/07/21 03:10:42;;;;;;;7.10;4.60;;;;;;;;;;5051755;28;20507;-85
2021/07/21 03:13:23;;;;;;;6.50;4.32;;;;;;;;;;5057268;28;20040;-86
2021/07/21 03:15:54;;;;;;;9.57;4.63;;;;;;;;;;5071875;28;20036;-86
2021/07/21 03:18:31;;;;;;;5.00;4.45;;;;;;;;;;5056275;28;20056;-86
2021/07/21 03:20:59;;;;;;;6.15;4.85;;;;;;;;;;5055024;28;20032;-86
2021/07/21 03:23:28;;;;;;;5.50;4.50;;;;;;;;;;5055046;28;20036;-86
2021/07/21 03:26:15;;;;;;;11.73;4.07;;;;;;;;;;5071881;28;20071;-86
2021/07/21 03:28:45;;;;;;;6.47;4.30;;;;;;;;;;5055619;28;20058;-87
2021/07/21 03:31:15;;;;;;;7.68;4.72;;;;;;;;;;5055371;28;20036;-86
2021/07/21 03:33:44;;;;;;;7.38;4.80;;;;;;;;;;5054875;28;20037;-86
2021/07/21 03:36:15;;;;;;;6.25;4.40;;;;;;;;;;5055290;28;20043;-86
2021/07/21 03:39:10;;;;;;;6.45;4.35;;;;;;;;;;5071733;28;20054;-86
2021/07/21 03:41:53;;;;;;;10.85;4.35;;;;;;;;;;5057213;28;20032;-86
2021/07/21 03:44:22;;;;;;;10.27;4.25;;;;;;;;;;5041126;28;20037;-86
2021/07/21 03:46:52;;;;;;;7.43;4.60;;;;;;;;;;5051496;28;20055;-86
2021/07/21 03:49:20;;;;;;;9.10;4.50;;;;;;;;;;5051428;28;20029;-86
2021/07/21 03:52:03;;;;;;;8.32;4.40;;;;;;;;;;5051536;28;20144;-86
2021/07/21 03:54:40;;;;;;;6.35;4.18;;;;;;;;;;5051463;28;20115;-86
2021/07/21 03:57:19;;;;;;;10.55;4.50;;;;;;;;;;5051192;28;20040;-86
2021/07/21 03:59:47;;;;;;;15.82;4.07;;;;;;;;;;5053872;28;20029;-87
2021/07/21 04:02:16;;;;;;;5.75;4.05;;;;;;;;;;5054926;28;20040;-87
2021/07/21 04:04:47;;;;;;;6.85;4.22;;;;;;;;;;5038374;28;20032;-86
2021/07/21 04:07:19;;;;;;;6.17;4.10;;;;;;;;;;5038806;28;20083;-86
2021/07/21 04:09:56;;;;;;;6.65;3.97;;;;;;;;;;5054808;28;20291;-86
2021/07/21 04:12:25;;;;;;;6.10;3.92;;;;;;;;;;5055077;28;20091;-86
2021/07/21 04:14:58;;;;;;;4.93;3.83;;;;;;;;;;5074217;28;20029;-87
2021/07/21 04:17:36;;;;;;;6.47;3.97;;;;;;;;;;5074642;28;20395;-86
2021/07/21 04:20:11;;;;;;;6.53;4.35;;;;;;;;;;5074521;28;20083;-86
2021/07/21 04:22:42;;;;;;;5.60;3.83;;;;;;;;;;5057904;28;20032;-87
2021/07/21 04:25:13;;;;;;;5.75;3.83;;;;;;;;;;5114254;28;20047;-86
2021/07/21 04:27:40;;;;;;;9.63;4.13;;;;;;;;;;5115048;28;20494;-86
2021/07/21 04:30:15;;;;;;;6.03;4.22;;;;;;;;;;5098060;28;20035;-86
2021/07/21 04:32:43;;;;;;;5.55;3.50;;;;;;;;;;5098058;28;20401;-85
2021/07/21 04:35:12;;;;;;;7.30;4.05;;;;;;;;;;5097999;28;20024;-86
2021/07/21 04:37:45;;;;;;;9.05;4.53;;;;;;;;;;5098136;28;20045;-86
2021/07/21 04:40:13;;;;;;;6.28;4.13;;;;;;;;;;5097593;28;20027;-86
2021/07/21 04:42:43;;;;;;;7.90;4.03;;;;;;;;;;5097636;28;20379;-86
2021/07/21 04:45:12;;;;;;;8.73;4.75;;;;;;;;;;5077343;28;20097;-86
2021/07/21 04:47:41;;;;;;;6.65;4.28;;;;;;;;;;5061195;28;20066;-86
2021/07/21 04:50:10;;;;;;;10.50;4.15;;;;;;;;;;5077690;28;20103;-86
2021/07/21 04:52:38;;;;;;;5.13;3.95;;;;;;;;;;5076942;28;20038;-85
2021/07/21 04:55:06;;;;;;;5.82;4.25;;;;;;;;;;5061371;28;20036;-86
2021/07/21 04:57:33;;;;;;;6.80;4.50;;;;;;;;;;5061102;28;20158;-86
2021/07/21 05:00:05;;;;;;;7.45;3.80;;;;;;;;;;5077468;28;20043;-86
2021/07/21 05:02:46;;;;;;;11.60;6.75;;;;;;;;;;5062827;28;20055;-86
2021/07/21 05:05:15;;;;;;;13.57;7.65;;;;;;;;;;5077157;28;20487;-87
2021/07/21 05:07:51;;;;;;;8.40;4.78;;;;;;;;;;5076837;28;20053;-86
2021/07/21 05:10:17;;;;;;;6.30;3.88;;;;;;;;;;5076156;28;20453;-87
2021/07/21 05:12:46;;;;;;;7.15;4.57;;;;;;;;;;5060294;28;20032;-85
2021/07/21 05:15:16;;;;;;;10.57;4.85;;;;;;;;;;5060622;28;20032;-87
2021/07/21 05:17:46;;;;;;;7.22;4.60;;;;;;;;;;5077114;28;20024;-86
2021/07/21 05:20:22;;;;;;;5.82;4.25;;;;;;;;;;5061632;28;20055;-86
2021/07/21 05:22:55;;;;;;;9.55;5.20;;;;;;;;;;5061935;28;20032;-87
2021/07/21 05:25:23;;;;;;;7.75;4.60;;;;;;;;;;5060598;28;20028;-87
2021/07/21 05:28:09;;;;;;;7.90;4.53;;;;;;;;;;5062269;28;20467;-86
2021/07/21 05:30:35;;;;;;;9.57;4.35;;;;;;;;;;5060415;28;20032;-87
2021/07/21 05:33:08;;;;;;;7.63;4.22;;;;;;;;;;5076638;28;20036;-88
2021/07/21 05:35:34;;;;;;;7.20;4.43;;;;;;;;;;5060138;28;20043;-87
2021/07/21 05:38:09;;;;;;;6.38;3.92;;;;;;;;;;5076946;28;20039;-88
2021/07/21 05:40:53;;;;;;;8.57;4.45;;;;;;;;;;5061360;28;20031;-87
2021/07/21 05:43:26;;;;;;;7.90;4.35;;;;;;;;;;5083971;28;20386;-86
2021/07/21 05:45:58;;;;;;;6.57;4.30;;;;;;;;;;5113907;28;20042;-87
2021/07/21 05:48:31;;;;;;;5.90;4.28;;;;;;;;;;5096600;28;20032;-86
2021/07/21 05:51:15;;;;;;;12.05;4.88;;;;;;;;;;5114748;28;20042;-86
2021/07/21 05:53:41;;;;;;;6.72;4.00;;;;;;;;;;5079200;28;20118;-86
2021/07/21 05:56:15;;;;;;;9.23;4.07;;;;;;;;;;5080074;28;20490;-86
2021/07/21 05:58:48;;;;;;;;;;;;;;;;;;5097010;28;20397;-86
2021/07/21 06:01:15;;;;;;;11.75;4.55;;;;;;;;;;5079644;28;19950;-87
2021/07/21 06:03:42;;;;;;;7.80;4.35;;;;;;;;;;5096527;28;20494;-87
2021/07/21 06:06:43;;;;;;;7.30;3.72;;;;;;;;;;5051721;28;20067;-86
2021/07/21 06:09:27;;;;;;;6.25;3.67;;;;;;;;;;5094295;28;20041;-86
2021/07/21 06:11:58;;;;;;;9.50;4.05;;;;;;;;;;5096085;28;20063;-87
2021/07/21 06:14:25;;;;;;;12.68;4.18;;;;;;;;;;5111370;27;20547;-88
2021/07/21 06:16:57;;;;;;;4.90;3.75;;;;;;;;;;5117030;27;20034;-88
2021/07/21 06:19:24;;;;;;;7.85;4.00;;;;;;;;;;5100408;27;20478;-88
2021/07/21 06:21:50;;;;;;;7.40;4.20;;;;;;;;;;5099471;27;20512;-88
2021/07/21 06:24:48;;;;;;;10.30;4.47;;;;;;;;;;5063851;28;20048;-87
2021/07/21 06:27:28;;;;;;;5.65;4.10;;;;;;;;;;5078014;28;20495;-88
2021/07/21 06:29:58;;;;;;;7.68;4.63;;;;;;;;;;5076602;28;20501;-87
2021/07/21 06:32:25;;;;;;;6.05;3.92;;;;;;;;;;5076498;28;20181;-88
2021/07/21 06:34:55;;;;;;;6.65;4.28;;;;;;;;;;5092809;28;20070;-88
2021/07/21 06:37:22;;;;;;;9.20;4.13;;;;;;;;;;5076328;28;20441;-88
2021/07/21 06:39:49;;;;;;;5.88;4.20;;;;;;;;;;5077159;28;20043;-86
2021/07/21 06:42:16;;;;;;;6.50;3.85;;;;;;;;;;5077202;28;20032;-86
2021/07/21 06:44:49;;;;;;;7.95;4.00;;;;;;;;;;5078363;28;20074;-87
2021/07/21 06:47:20;;;;;;;7.97;3.78;;;;;;;;;;5076523;28;20028;-87
2021/07/21 06:49:50;;;;;;;8.38;3.72;;;;;;;;;;5076303;28;20028;-86
2021/07/21 06:52:17;;;;;;;10.27;3.78;;;;;;;;;;5075753;28;20092;-87
2021/07/21 06:54:44;;;;;;;10.98;4.03;;;;;;;;;;5076311;28;20028;-87
2021/07/21 06:57:29;;;;;;;5.63;3.63;;;;;;;;;;5093298;28;20064;-87
2021/07/21 07:00:13;;;;;;;6.85;3.47;;;;;;;;;;5092638;28;20038;-87
2021/07/21 07:02:59;;;;;;;6.43;4.00;;;;;;;;;;5082360;28;20059;-86
2021/07/21 07:05:40;;;;;;;5.93;3.65;;;;;;;;;;5093279;28;20036;-88
2021/07/21 07:08:29;;;;;;;6.43;3.35;;;;;;;;;;5092041;28;20130;-87
2021/07/21 07:11:07;;;;;;;8.32;4.65;;;;;;;;;;5092694;28;20130;-88
2021/07/21 07:13:33;;;;;;;6.07;3.95;;;;;;;;;;5075195;28;20060;-87
2021/07/21 07:16:00;;;;;;;6.95;3.88;;;;;;;;;;5074746;28;20032;-88
2021/07/21 07:18:27;;;;;;;8.32;4.32;;;;;;;;;;5074902;28;20532;-87
2021/07/21 07:20:54;;;;;;;6.18;3.70;;;;;;;;;;5076637;28;20118;-85
2021/07/21 07:23:21;;;;;;;10.18;3.75;;;;;;;;;;5078629;28;20070;-88
2021/07/21 07:25:46;;;;;;;6.65;3.80;;;;;;;;;;5096391;28;20055;-84
2021/07/21 07:28:13;;;;;;;8.75;3.65;;;;;;;;;;5098563;28;20031;-82
2021/07/21 07:30:38;;;;;;;5.53;4.40;;;;;;;;;;5099212;28;20411;-79
2021/07/21 07:33:04;;;;;;;6.22;3.78;;;;;;;;;;5099516;28;20038;-79
2021/07/21 07:35:29;;;;;;;10.32;3.90;;;;;;;;;;5121051;28;20039;-81
2021/07/21 07:37:54;;;;;;;10.00;4.07;;;;;;;;;;5120578;28;20074;-80
2021/07/21 07:40:21;;;;;;;8.38;4.28;;;;;;;;;;5104115;28;20118;-80
2021/07/21 07:42:48;;;;;;;7.43;3.95;;;;;;;;;;5104237;28;20402;-80
2021/07/21 07:45:14;;;;;;;5.78;3.67;;;;;;;;;;5085441;28;20093;-81
2021/07/21 07:47:40;;;;;;;9.65;3.85;;;;;;;;;;5101452;28;20039;-82
2021/07/21 07:50:08;;;;;;;6.43;3.70;;;;;;;;;;5083093;28;20031;-83
2021/07/21 07:52:37;;;;;;;6.32;4.22;;;;;;;;;;5116749;28;20028;-83
2021/07/21 07:55:05;;;;;;;8.63;4.65;;;;;;;;;;5099556;28;20020;-83
2021/07/21 07:57:31;;;;;;;10.70;4.32;;;;;;;;;;5083058;28;20108;-82
2021/07/21 07:59:59;;;;;;;7.82;3.72;;;;;;;;;;5081079;28;20036;-82
2021/07/21 08:02:25;;;;;;;5.78;4.07;;;;;;;;;;5098806;28;20050;-83
2021/07/21 08:04:52;;;;;;;6.40;3.75;;;;;;;;;;5081621;28;20064;-82
2021/07/21 08:07:23;;;;;;;5.20;3.67;;;;;;;;;;5098791;28;20039;-82
2021/07/21 08:09:48;;;;;;;9.88;4.70;;;;;;;;;;5097880;28;20117;-81
2021/07/21 08:12:19;;;;;;;7.15;4.00;;;;;;;;;;5096310;28;20086;-84
2021/07/21 08:14:48;;;;;;;7.00;3.95;;;;;;;;;;5095119;28;20028;-84
2021/07/21 08:17:14;;;;;;;7.38;3.97;;;;;;;;;;5076596;28;20476;-83
2021/07/21 08:19:40;;;;;;;6.68;4.10;;;;;;;;;;5094766;28;20031;-83
2021/07/21 08:22:05;;;;;;;5.63;3.90;;;;;;;;;;5094999;28;20036;-84
2021/07/21 08:24:31;;;;;;;6.85;4.47;;;;;;;;;;5081267;28;20059;-84
2021/07/21 08:26:57;;;;;;;5.82;4.18;;;;;;;;;;5074511;28;20029;-84
2021/07/21 08:29:23;;;;;;;6.82;4.15;;;;;;;;;;5058060;28;20468;-84
2021/07/21 08:31:50;;;;;;;8.70;4.85;;;;;;;;;;5074547;28;20040;-84
2021/07/21 08:34:15;;;;;;;11.48;5.35;;;;;;;;;;5057769;28;20040;-83
2021/07/21 08:36:41;;;;;;;7.22;4.75;;;;;;;;;;5074687;28;20032;-84
2021/07/21 08:39:12;;;;;;;7.88;4.75;;;;;;;;;;5057891;28;20032;-84
2021/07/21 08:41:41;;;;;;;7.70;4.47;;;;;;;;;;5075426;28;20037;-84
2021/07/21 08:44:07;;;;;;;7.75;4.40;;;;;;;;;;5062085;28;20037;-84
2021/07/21 08:46:39;;;;;;;7.20;5.00;;;;;;;;;;5053953;28;20060;-84
2021/07/21 08:49:07;;;;;;;9.05;4.82;;;;;;;;;;5054162;28;20426;-84
2021/07/21 08:51:34;;;;;;;8.43;5.55;;;;;;;;;;5037449;28;20542;-84
2021/07/21 08:54:00;;;;;;;13.05;6.10;;;;;;;;;;5053884;28;20068;-84
2021/07/21 08:56:28;;;;;;;10.50;5.15;;;;;;;;;;5054144;28;20554;-84
2021/07/21 08:58:54;;;;;;;8.02;5.40;;;;;;;;;;5054310;28;20044;-84
2021/07/21 09:01:21;;;;;;;7.68;5.65;;;;;;;;;;5054330;28;20040;-84
2021/07/21 09:03:48;;;;;;;9.00;5.68;;;;;;;;;;5038379;28;20037;-85
2021/07/21 09:06:25;;;;;;;8.15;5.00;;;;;;;;;;5055428;28;20043;-84
2021/07/21 09:08:50;;;;;;;9.30;5.15;;;;;;;;;;5054612;28;20095;-84
2021/07/21 09:11:17;;;;;;;7.32;5.20;;;;;;;;;;5054297;28;20033;-85
2021/07/21 09:13:43;;;;;;;7.95;4.90;;;;;;;;;;5046489;28;20131;-84
2021/07/21 09:16:08;;;;;;;9.05;5.53;;;;;;;;;;5073440;28;20036;-84
2021/07/21 09:18:51;;;;;;;11.85;5.45;;;;;;;;;;5057199;28;20029;-85
2021/07/21 09:21:22;;;;;;;8.95;4.97;;;;;;;;;;5057068;28;20515;-85
2021/07/21 09:23:50;;;;;;;6.88;4.95;;;;;;;;;;5057680;28;20047;-83
2021/07/21 09:26:23;;;;;;;7.65;4.72;;;;;;;;;;5060607;28;20044;-81
2021/07/21 09:28:51;;;;;;;8.73;4.95;;;;;;;;;;5061005;28;20515;-82
2021/07/21 09:31:31;;;;;;;4.63;3.88;;;;;;;;;;5076240;28;20055;-82
2021/07/21 09:33:58;;;;;;;6.05;3.95;;;;;;;;;;5064752;28;20058;-82
2021/07/21 09:36:23;;;;;;;7.97;4.30;;;;;;;;;;5066288;28;20067;-83
2021/07/21 09:38:51;;;;;;;5.93;3.90;;;;;;;;;;5064172;28;20058;-84
2021/07/21 09:41:17;;;;;;;8.65;4.43;;;;;;;;;;5081299;28;20094;-84
2021/07/21 09:43:44;;;;;;;5.78;4.07;;;;;;;;;;5079224;28;20040;-83
2021/07/21 09:46:13;;;;;;;7.60;4.40;;;;;;;;;;5057730;28;20079;-85
2021/07/21 09:48:40;;;;;;;4.93;3.83;;;;;;;;;;5078642;28;20033;-81
2021/07/21 09:51:05;;;;;;;12.70;3.92;;;;;;;;;;5060665;28;20036;-80
2021/07/21 09:53:46;;;;;;;8.13;4.10;;;;;;;;;;5060155;28;20451;-87
2021/07/21 09:56:12;;;;;;;9.88;4.55;;;;;;;;;;5057317;28;20042;-84
2021/07/21 09:58:39;;;;;;;6.90;4.40;;;;;;;;;;5060731;28;20508;-84
2021/07/21 10:01:05;;;;;;;6.65;4.75;;;;;;;;;;5056606;28;20040;-80
2021/07/21 10:03:35;;;;;;;7.53;4.18;;;;;;;;;;5041474;28;20029;-80
2021/07/21 10:06:08;;;;;;;10.95;4.63;;;;;;;;;;5059145;28;20064;-79
2021/07/21 10:08:43;;;;;;;7.80;3.97;;;;;;;;;;5059421;28;20041;-79
2021/07/21 10:11:31;;;;;;;13.93;5.63;;;;;;;;;;5041284;28;20037;-81
2021/07/21 10:13:59;;;;;;;5.65;3.83;;;;;;;;;;5069269;28;20032;-79
2021/07/21 10:16:37;;;;;;;5.00;3.72;;;;;;;;;;5077900;28;20135;-81
2021/07/21 10:19:07;;;;;;;4.65;3.55;;;;;;;;;;5061942;28;20047;-82
2021/07/21 10:21:33;;;;;;;9.20;4.13;;;;;;;;;;5061085;28;20036;-82
2021/07/21 10:23:59;;;;;;;7.65;4.20;;;;;;;;;;5077449;28;20048;-81
2021/07/21 10:26:29;;;;;;;4.80;3.72;;;;;;;;;;5061088;28;20049;-82
2021/07/21 10:28:59;;;;;;;4.68;3.60;;;;;;;;;;5075646;28;20079;-83
2021/07/21 10:31:34;;;;;;;6.10;4.10;;;;;;;;;;5059519;28;20040;-81
2021/07/21 10:34:26;;;;;;;;;;;;;;;;;;5071766;28;20048;-81
2021/07/21 10:36:53;;;;;;;5.35;3.95;;;;;;;;;;5076300;28;19912;-80
2021/07/21 10:39:28;;;;;;;4.65;3.50;;;;;;;;;;5057850;28;20074;-80
2021/07/21 10:42:15;;;;;;;6.60;3.47;;;;;;;;;;5076208;28;20044;-80
2021/07/21 10:44:41;;;;;;;5.30;2.95;;;;;;;;;;5059523;28;20044;-80
2021/07/21 10:47:24;;;;;;;6.03;3.70;;;;;;;;;;5056383;28;20033;-81
2021/07/21 10:49:59;;;;;;;4.25;3.50;;;;;;;;;;5055967;28;20438;-81
2021/07/21 10:52:55;;;;;;;5.22;3.70;;;;;;;;;;5039545;28;20048;-81
2021/07/21 10:55:26;;;;;;;4.65;3.55;;;;;;;;;;5055975;28;20037;-81
2021/07/21 11:00:51;;;;;;;7.13;3.17;;;;;;;;;;5055734;28;20029;-81
2021/07/21 11:03:31;;;;;;;4.97;3.50;;;;;;;;;;5055820;28;20496;-81
2021/07/21 11:06:02;;;;;;;5.07;3.53;;;;;;;;;;5055460;28;20037;-81
2021/07/21 11:08:29;;;;;;;5.45;3.90;;;;;;;;;;5055476;28;20118;-81
2021/07/21 11:11:10;;;;;;;5.68;3.58;;;;;;;;;;5059485;28;20043;-81
2021/07/21 11:13:39;;;;;;;7.05;3.28;;;;;;;;;;5068050;28;20063;-81
2021/07/21 11:16:06;;;;;;;4.25;3.13;;;;;;;;;;5059262;28;20035;-81
2021/07/21 11:18:31;;;;;;;10.50;3.70;;;;;;;;;;5076644;28;20048;-81
2021/07/21 11:21:04;;;;;;;4.60;4.07;;;;;;;;;;5042526;28;20037;-81
2021/07/21 11:24:00;;;;;;;5.18;3.30;;;;;;;;;;5059970;28;20053;-81
2021/07/21 11:26:34;;;;;;;4.18;3.45;;;;;;;;;;5034607;28;20033;-81
2021/07/21 11:29:21;;;;;;;6.38;3.92;;;;;;;;;;5059924;28;20094;-81
2021/07/21 11:31:50;;;;;;;4.93;3.40;;;;;;;;;;5043790;28;20484;-81
2021/07/21 11:34:34;;;;;;;4.60;3.13;;;;;;;;;;5061071;28;20090;-81
2021/07/21 11:37:26;;;;;;;4.00;3.17;;;;;;;;;;5043281;28;20033;-81
2021/07/21 11:39:57;;;;;;;4.80;3.40;;;;;;;;;;5041525;28;20047;-81
2021/07/21 11:42:23;;;;;;;5.90;3.33;;;;;;;;;;5063598;28;20040;-81
2021/07/21 11:44:50;;;;;;;7.25;3.20;;;;;;;;;;5081130;28;20071;-81
2021/07/21 11:47:17;;;;;;;3.25;2.75;;;;;;;;;;5081119;28;20080;-81
2021/07/21 11:49:51;;;;;;;7.72;3.63;;;;;;;;;;5063850;28;20035;-81
2021/07/21 11:52:19;;;;;;;4.05;3.00;;;;;;;;;;5062084;28;20034;-81
2021/07/21 11:54:45;;;;;;;9.45;3.38;;;;;;;;;;5058995;28;20090;-81
2021/07/21 11:57:11;;;;;;;4.38;3.15;;;;;;;;;;5060151;28;20021;-83
2021/07/21 11:59:39;;;;;;;4.55;3.33;;;;;;;;;;5057077;28;20407;-81
2021/07/21 12:02:13;;;;;;;5.75;3.45;;;;;;;;;;5057717;28;20036;-81
2021/07/21 12:04:44;;;;;;;4.93;2.95;;;;;;;;;;5060010;28;20033;-81
2021/07/21 12:07:11;;;;;;;4.20;2.67;;;;;;;;;;5059289;28;20033;-81
2021/07/21 12:09:44;;;;;;;4.90;3.25;;;;;;;;;;5076159;28;20541;-82
2021/07/21 12:12:13;;;;;;;4.93;3.03;;;;;;;;;;5055962;28;20428;-89
2021/07/21 12:14:40;;;;;;;5.05;3.15;;;;;;;;;;5056517;28;20091;-87
2021/07/21 12:17:11;;;;;;;3.92;2.95;;;;;;;;;;5058441;28;20059;-86
2021/07/21 12:19:41;;;;;;;3.58;3.15;;;;;;;;;;5057723;28;20507;-86
2021/07/21 12:22:12;;;;;;;7.78;3.03;;;;;;;;;;5075105;28;20032;-87
2021/07/21 12:24:40;;;;;;;13.13;4.65;;;;;;;;;;5072342;28;20170;-87
2021/07/21 12:27:11;;;;;;;4.50;2.97;;;;;;;;;;5097271;28;20043;-86
2021/07/21 12:29:37;;;;;;;4.22;3.10;;;;;;;;;;5099196;28;20069;-84
2021/07/21 12:32:14;;;;;;;4.32;3.03;;;;;;;;;;5099749;28;20482;-84
2021/07/21 12:34:42;;;;;;;3.30;2.70;;;;;;;;;;5100294;28;20525;-85
2021/07/21 12:37:17;;;;;;;5.68;3.17;;;;;;;;;;5100909;28;20035;-84
2021/07/21 12:39:45;;;;;;;5.65;3.05;;;;;;;;;;5100130;28;20040;-84
2021/07/21 12:42:14;;;;;;;7.10;3.03;;;;;;;;;;5100985;28;20089;-84
2021/07/21 12:44:47;;;;;;;6.72;3.47;;;;;;;;;;5118696;28;20040;-85
2021/07/21 12:47:23;;;;;;;3.95;2.90;;;;;;;;;;5100918;28;20028;-85
2021/07/21 12:49:50;;;;;;;;;;;;;;;;;;5085107;28;20122;-85
2021/07/21 12:52:39;;;;;;;4.43;3.38;;;;;;;;;;5100315;28;19919;-84
2021/07/21 12:55:06;;;;;;;7.93;3.67;;;;;;;;;;5083795;28;20035;-85
2021/07/21 12:57:38;;;;;;;8.27;3.92;;;;;;;;;;5083113;28;20047;-85
2021/07/21 13:00:19;;;;;;;5.32;3.63;;;;;;;;;;5083058;28;20032;-85
2021/07/21 13:02:56;;;;;;;4.50;3.60;;;;;;;;;;5100212;28;20048;-83
2021/07/21 13:05:35;;;;;;;9.48;3.70;;;;;;;;;;5099771;28;20044;-85
2021/07/21 13:08:12;;;;;;;4.72;3.33;;;;;;;;;;5083002;28;20424;-85
2021/07/21 13:10:43;;;;;;;5.80;3.72;;;;;;;;;;5083067;28;20040;-85
2021/07/21 13:13:51;;;;;;;5.50;3.70;;;;;;;;;;5099498;28;20104;-85
2021/07/21 13:16:22;;;;;;;5.38;3.47;;;;;;;;;;5069090;28;20049;-85
2021/07/21 13:18:49;;;;;;;3.90;3.25;;;;;;;;;;5078862;28;20036;-85
2021/07/21 13:21:26;;;;;;;4.55;3.70;;;;;;;;;;5062497;28;20036;-84
2021/07/21 13:23:57;;;;;;;5.47;3.40;;;;;;;;;;5071721;28;20040;-84
2021/07/21 13:26:24;;;;;;;6.25;4.00;;;;;;;;;;5042477;28;20086;-85
2021/07/21 13:28:52;;;;;;;6.28;3.95;;;;;;;;;;5042714;28;20132;-85
2021/07/21 13:31:19;;;;;;;6.00;3.58;;;;;;;;;;5041807;28;20043;-85
2021/07/21 13:33:57;;;;;;;5.28;3.35;;;;;;;;;;5042276;28;20111;-85
2021/07/21 13:36:25;;;;;;;4.47;3.70;;;;;;;;;;5058641;28;20175;-85
2021/07/21 13:39:03;;;;;;;8.07;3.75;;;;;;;;;;5041897;28;20031;-85
2021/07/21 13:41:29;;;;;;;6.72;3.42;;;;;;;;;;5041963;28;20043;-85
2021/07/21 13:44:03;;;;;;;6.70;4.05;;;;;;;;;;5044873;28;20037;-85
2021/07/21 13:46:34;;;;;;;5.10;3.60;;;;;;;;;;5042094;28;20029;-85
2021/07/21 13:49:07;;;;;;;4.85;3.28;;;;;;;;;;5058568;28;20041;-85
2021/07/21 13:51:34;;;;;;;5.18;3.78;;;;;;;;;;5075023;28;20040;-85
2021/07/21 13:54:17;;;;;;;5.45;3.60;;;;;;;;;;5058487;28;20044;-84
2021/07/21 13:56:44;;;;;;;5.80;4.30;;;;;;;;;;5041878;28;20040;-84
2021/07/21 13:59:10;;;;;;;9.73;4.43;;;;;;;;;;5057647;28;20044;-84
2021/07/21 14:01:37;;;;;;;9.20;4.03;;;;;;;;;;5041025;28;20056;-85
2021/07/21 14:04:03;;;;;;;6.68;4.50;;;;;;;;;;5041312;28;20377;-84
2021/07/21 14:06:30;;;;;;;10.48;5.15;;;;;;;;;;5041159;28;20033;-85
2021/07/21 14:08:58;;;;;;;10.27;4.78;;;;;;;;;;5041040;28;20064;-85
2021/07/21 14:11:25;;;;;;;8.20;5.00;;;;;;;;;;5057151;28;20476;-85
2021/07/21 14:13:51;;;;;;;7.50;4.95;;;;;;;;;;5043108;28;20036;-85
2021/07/21 14:16:20;;;;;;;13.15;5.45;;;;;;;;;;5058153;28;20086;-84
2021/07/21 14:18:48;;;;;;;7.25;5.55;;;;;;;;;;5040881;28;20485;-84
2021/07/21 14:21:15;;;;;;;9.95;5.20;;;;;;;;;;5040831;28;20064;-84
2021/07/21 14:23:42;;;;;;;7.63;5.45;;;;;;;;;;5056745;28;20045;-85
2021/07/21 14:26:10;;;;;;;8.50;5.35;;;;;;;;;;5040793;28;20040;-85
2021/07/21 14:28:37;;;;;;;7.60;5.60;;;;;;;;;;5040862;28;20051;-85
2021/07/21 14:31:04;;;;;;;7.32;5.18;;;;;;;;;;5040701;28;20036;-84
2021/07/21 14:33:30;;;;;;;8.52;6.00;;;;;;;;;;5056853;28;20192;-84
2021/07/21 14:35:57;;;;;;;8.25;5.88;;;;;;;;;;5040394;28;20036;-84
2021/07/21 14:38:23;;;;;;;7.15;5.35;;;;;;;;;;5057108;28;20040;-85
2021/07/21 14:40:49;;;;;;;7.97;5.68;;;;;;;;;;5040470;28;20044;-85
2021/07/21 14:43:16;;;;;;;10.30;5.90;;;;;;;;;;5040985;28;20064;-85
2021/07/21 14:45:42;;;;;;;8.45;6.05;;;;;;;;;;5071644;28;20036;-84
2021/07/21 14:48:07;;;;;;;9.35;5.57;;;;;;;;;;5060404;28;20488;-84
2021/07/21 14:50:33;;;;;;;8.05;5.95;;;;;;;;;;5060102;28;20025;-84
2021/07/21 14:52:59;;;;;;;9.10;6.10;;;;;;;;;;5060292;28;20068;-85
2021/07/21 14:55:28;;;;;;;8.00;5.38;;;;;;;;;;5076947;28;20038;-85
2021/07/21 14:57:55;;;;;;;8.32;6.68;;;;;;;;;;5060708;28;20082;-85
2021/07/21 15:00:24;;;;;;;8.75;6.00;;;;;;;;;;5060008;28;20044;-84
2021/07/21 15:02:51;;;;;;;7.22;5.60;;;;;;;;;;5060561;28;20043;-85
2021/07/21 15:05:17;;;;;;;7.57;5.43;;;;;;;;;;5059746;28;20082;-85
2021/07/21 15:07:43;;;;;;;8.65;6.30;;;;;;;;;;5060404;28;20495;-85
2021/07/21 15:10:10;;;;;;;7.15;5.63;;;;;;;;;;5059836;28;20037;-85
2021/07/21 15:12:35;;;;;;;8.98;6.07;;;;;;;;;;5077583;28;20028;-84